CMA CGM Turquoise — A8RB5 — position and weather

sailwx.info

Track history (hours):
 
Tides and Currents Weather Stations Pressure Air Temp Water Temp Dewpoint Dewpoint Depression Visibility Wind Speed Wind Dir Waves Ship Positions

CMA CGM Turquoise

Last reported at 2017-Aug-19 13:20 UTC. Time now 2017-Aug-20 22:51 UTC.
Position N 22°39' E 113°41'.

Length 258 m; draft 10.7 m.

Type: Ship (hazmat cat C). MMSI: 636014059.

Date/timePositionNaut miles runAvg speedWind from/ knotsBaromVisibWave heightAir tempDewpointWater temp
2017-Aug-19 13:20N 22°39' E 113°41'3 8.7
2017-Aug-19 13:00N 22°36' E 113°43'714.6
2017-Aug-19 12:30N 22°29' E 113°45'714.5
2017-Aug-19 11:59N 22°22' E 113°47'8 1.0
2017-Aug-19 04:22N 22°28' E 113°53'158 7.9
2017-Aug-18 08:20N 22°35' E 116°43'720.4
2017-Aug-18 08:00N 22°39' E 116°49'9721.0
2017-Aug-18 03:22N 23°39' E 118°12'720.8
2017-Aug-18 03:01N 23°43' E 118°19'2421.2
2017-Aug-18 01:52N 23°60' E 118°38'1021.1
2017-Aug-18 01:24N 24°07' E 118°45'1420.5
2017-Aug-18 00:44N 24°16' E 118°57'1020.7
2017-Aug-18 00:14N 24°23' E 119°05'1120.2
2017-Aug-17 23:42N 24°31' E 119°13'420.0
2017-Aug-17 23:30N 24°33' E 119°16'1219.9
2017-Aug-17 22:53N 24°42' E 119°26'820.0
2017-Aug-17 22:31N 24°47' E 119°32'1919.9
2017-Aug-17 21:35N 24°60' E 119°47'220.1
2017-Aug-17 21:28N 25°01' E 119°49'1219.9
2017-Aug-17 20:51N 25°10' E 119°59'820.1
2017-Aug-17 20:26N 25°16' E 120°05'1720.6
2017-Aug-17 19:38N 25°27' E 120°19'26319.2
2017-Aug-17 05:56N 29°25' E 122°25'920.4
2017-Aug-17 05:30N 29°33' E 122°26'917.1
2017-Aug-17 05:00N 29°42' E 122°24'612.9
2017-Aug-17 04:30N 29°46' E 122°18'510.1
2017-Aug-17 04:00N 29°49' E 122°14'613.0
2017-Aug-17 03:31N 29°54' E 122°10'713.8
2017-Aug-17 03:00N 29°55' E 122°02'611.7
2017-Aug-17 02:30N 29°57' E 121°55'5 1.2
2017-Aug-16 22:36N 29°59' E 121°50'0 0.0
2017-Aug-16 22:24N 29°59' E 121°50'0 0.0
2017-Aug-16 16:54N 29°59' E 121°50'0 0.0
2017-Aug-16 16:12N 29°59' E 121°50'0 0.0
2017-Aug-16 15:42N 29°59' E 121°50'0 0.0
2017-Aug-16 15:24N 29°59' E 121°50'0 0.0
2017-Aug-16 14:36N 29°59' E 121°50'0 0.1
2017-Aug-16 14:30N 29°59' E 121°50'1 2.8
2017-Aug-16 14:00N 29°58' E 121°51'4 7.4
2017-Aug-16 13:29N 29°59' E 121°55'611.6
2017-Aug-16 13:00N 29°56' E 122°01'714.4
2017-Aug-16 12:30N 29°55' E 122°09'713.6
2017-Aug-16 12:00N 29°50' E 122°13'510.5
2017-Aug-16 11:30N 29°46' E 122°18'3 5.8
2017-Aug-16 11:00N 29°45' E 122°21'0 0.6
2017-Aug-16 10:26N 29°45' E 122°21'0 0.1
2017-Aug-16 09:50N 29°45' E 122°21'0 0.0
2017-Aug-16 09:29N 29°45' E 122°21'1 1.6
2017-Aug-16 09:00N 29°46' E 122°22'611.9
2017-Aug-16 08:30N 29°47' E 122°28'612.7
2017-Aug-16 08:00N 29°48' E 122°35'612.5
2017-Aug-16 07:30N 29°51' E 122°42'713.1
2017-Aug-16 06:58N 29°56' E 122°46'2912.6
2017-Aug-16 04:38N 30°26' E 122°44'212.3
2017-Aug-16 04:30N 30°27' E 122°42'35 2.4
2017-Aug-15 13:59N 30°36' E 122°04'2 3.4
2017-Aug-15 13:23N 30°36' E 122°06'4 7.4
2017-Aug-15 12:48N 30°34' E 122°10'410.1
2017-Aug-15 12:21N 30°34' E 122°16'510.8
2017-Aug-15 11:51N 30°32' E 122°22'13 0.5
2017-Aug-14 10:11N 30°28' E 122°36'3 7.8
2017-Aug-14 09:50N 30°28' E 122°39'410.9
2017-Aug-14 09:26N 30°28' E 122°44'611.1
2017-Aug-14 08:56N 30°26' E 122°50'611.9
2017-Aug-14 08:26N 30°22' E 122°55'1211.7
2017-Aug-14 07:26N 30°14' E 123°05'512.3
2017-Aug-14 07:00N 30°09' E 123°07'812.6
2017-Aug-14 06:22N 30°01' E 123°10'513.1
2017-Aug-14 06:00N 29°56' E 123°10'613.0
2017-Aug-14 05:30N 29°50' E 123°11'712.9
2017-Aug-14 05:00N 29°43' E 123°10'613.0
2017-Aug-14 04:30N 29°37' E 123°10'912.8
2017-Aug-14 03:48N 29°28' E 123°09'1613.2
2017-Aug-14 02:37N 29°15' E 122°60'25814.3
2017-Aug-13 08:36N 25°33' E 120°32'419.3
2017-Aug-13 08:25N 25°29' E 120°31'4318.4
2017-Aug-13 06:03N 24°58' E 119°58'118.4
2017-Aug-13 06:00N 24°57' E 119°57'1418.3
2017-Aug-13 05:14N 24°48' E 119°45'718.5
2017-Aug-13 04:52N 24°43' E 119°40'718.9
2017-Aug-13 04:30N 24°39' E 119°34'919.0
2017-Aug-13 04:00N 24°32' E 119°26'1219.1
2017-Aug-13 03:22N 24°24' E 119°16'719.0
2017-Aug-13 03:00N 24°20' E 119°11'919.0
2017-Aug-13 02:30N 24°13' E 119°03'1019.1
2017-Aug-13 02:00N 24°07' E 118°55'1018.9
2017-Aug-13 01:29N 24°00' E 118°47'1718.4
2017-Aug-13 00:32N 23°49' E 118°33'118.0
2017-Aug-13 00:29N 23°48' E 118°32'917.7
2017-Aug-13 00:00N 23°42' E 118°25'  
Track history (hours):
 
Tides and Currents Weather Stations Pressure Air Temp Water Temp Dewpoint Dewpoint Depression Visibility Wind Speed Wind Dir Waves Ship Positions

CMA CGM Turquoise

Last reported at 2017-Aug-19 13:20 UTC. Time now 2017-Aug-20 22:51 UTC.
Position N 22°39' E 113°41'.

Length 258 m; draft 10.7 m.

Type: Ship (hazmat cat C). MMSI: 636014059.

Date/timePositionNaut miles runAvg speedWind from/ knotsBaromVisibWave heightAir tempDewpointWater temp
2017-Aug-19 13:20N 22°39' E 113°41'3 8.7
2017-Aug-19 13:00N 22°36' E 113°43'714.6
2017-Aug-19 12:30N 22°29' E 113°45'714.5
2017-Aug-19 11:59N 22°22' E 113°47'8 1.0
2017-Aug-19 04:22N 22°28' E 113°53'158 7.9
2017-Aug-18 08:20N 22°35' E 116°43'720.4
2017-Aug-18 08:00N 22°39' E 116°49'9721.0
2017-Aug-18 03:22N 23°39' E 118°12'720.8
2017-Aug-18 03:01N 23°43' E 118°19'2421.2
2017-Aug-18 01:52N 23°60' E 118°38'1021.1
2017-Aug-18 01:24N 24°07' E 118°45'1420.5
2017-Aug-18 00:44N 24°16' E 118°57'1020.7
2017-Aug-18 00:14N 24°23' E 119°05'1120.2
2017-Aug-17 23:42N 24°31' E 119°13'420.0
2017-Aug-17 23:30N 24°33' E 119°16'1219.9
2017-Aug-17 22:53N 24°42' E 119°26'820.0
2017-Aug-17 22:31N 24°47' E 119°32'1919.9
2017-Aug-17 21:35N 24°60' E 119°47'220.1
2017-Aug-17 21:28N 25°01' E 119°49'1219.9
2017-Aug-17 20:51N 25°10' E 119°59'820.1
2017-Aug-17 20:26N 25°16' E 120°05'1720.6
2017-Aug-17 19:38N 25°27' E 120°19'26319.2
2017-Aug-17 05:56N 29°25' E 122°25'920.4
2017-Aug-17 05:30N 29°33' E 122°26'917.1
2017-Aug-17 05:00N 29°42' E 122°24'612.9
2017-Aug-17 04:30N 29°46' E 122°18'510.1
2017-Aug-17 04:00N 29°49' E 122°14'613.0
2017-Aug-17 03:31N 29°54' E 122°10'713.8
2017-Aug-17 03:00N 29°55' E 122°02'611.7
2017-Aug-17 02:30N 29°57' E 121°55'5 1.2
2017-Aug-16 22:36N 29°59' E 121°50'0 0.0
2017-Aug-16 22:24N 29°59' E 121°50'0 0.0
2017-Aug-16 16:54N 29°59' E 121°50'0 0.0
2017-Aug-16 16:12N 29°59' E 121°50'0 0.0
2017-Aug-16 15:42N 29°59' E 121°50'0 0.0
2017-Aug-16 15:24N 29°59' E 121°50'0 0.0
2017-Aug-16 14:36N 29°59' E 121°50'0 0.1
2017-Aug-16 14:30N 29°59' E 121°50'1 2.8
2017-Aug-16 14:00N 29°58' E 121°51'4 7.4
2017-Aug-16 13:29N 29°59' E 121°55'611.6
2017-Aug-16 13:00N 29°56' E 122°01'714.4
2017-Aug-16 12:30N 29°55' E 122°09'713.6
2017-Aug-16 12:00N 29°50' E 122°13'510.5
2017-Aug-16 11:30N 29°46' E 122°18'3 5.8
2017-Aug-16 11:00N 29°45' E 122°21'0 0.6
2017-Aug-16 10:26N 29°45' E 122°21'0 0.1
2017-Aug-16 09:50N 29°45' E 122°21'0 0.0
2017-Aug-16 09:29N 29°45' E 122°21'1 1.6
2017-Aug-16 09:00N 29°46' E 122°22'611.9
2017-Aug-16 08:30N 29°47' E 122°28'612.7
2017-Aug-16 08:00N 29°48' E 122°35'612.5
2017-Aug-16 07:30N 29°51' E 122°42'713.1
2017-Aug-16 06:58N 29°56' E 122°46'2912.6
2017-Aug-16 04:38N 30°26' E 122°44'212.3
2017-Aug-16 04:30N 30°27' E 122°42'35 2.4
2017-Aug-15 13:59N 30°36' E 122°04'2 3.4
2017-Aug-15 13:23N 30°36' E 122°06'4 7.4
2017-Aug-15 12:48N 30°34' E 122°10'410.1
2017-Aug-15 12:21N 30°34' E 122°16'510.8
2017-Aug-15 11:51N 30°32' E 122°22'13 0.5
2017-Aug-14 10:11N 30°28' E 122°36'3 7.8
2017-Aug-14 09:50N 30°28' E 122°39'410.9
2017-Aug-14 09:26N 30°28' E 122°44'611.1
2017-Aug-14 08:56N 30°26' E 122°50'611.9
2017-Aug-14 08:26N 30°22' E 122°55'1211.7
2017-Aug-14 07:26N 30°14' E 123°05'512.3
2017-Aug-14 07:00N 30°09' E 123°07'812.6
2017-Aug-14 06:22N 30°01' E 123°10'513.1
2017-Aug-14 06:00N 29°56' E 123°10'613.0
2017-Aug-14 05:30N 29°50' E 123°11'712.9
2017-Aug-14 05:00N 29°43' E 123°10'613.0
2017-Aug-14 04:30N 29°37' E 123°10'912.8
2017-Aug-14 03:48N 29°28' E 123°09'1613.2
2017-Aug-14 02:37N 29°15' E 122°60'25814.3
2017-Aug-13 08:36N 25°33' E 120°32'419.3
2017-Aug-13 08:25N 25°29' E 120°31'4318.4
2017-Aug-13 06:03N 24°58' E 119°58'118.4
2017-Aug-13 06:00N 24°57' E 119°57'1418.3
2017-Aug-13 05:14N 24°48' E 119°45'718.5
2017-Aug-13 04:52N 24°43' E 119°40'718.9
2017-Aug-13 04:30N 24°39' E 119°34'919.0
2017-Aug-13 04:00N 24°32' E 119°26'1219.1
2017-Aug-13 03:22N 24°24' E 119°16'719.0
2017-Aug-13 03:00N 24°20' E 119°11'919.0
2017-Aug-13 02:30N 24°13' E 119°03'1019.1
2017-Aug-13 02:00N 24°07' E 118°55'1018.9
2017-Aug-13 01:29N 24°00' E 118°47'1718.4
2017-Aug-13 00:32N 23°49' E 118°33'118.0
2017-Aug-13 00:29N 23°48' E 118°32'917.7
2017-Aug-13 00:00N 23°42' E 118°25'  

Dump ship's entire track history